createdAt,value
2019-05-14T00:00:26.024Z,68.05
2019-05-14T00:01:25.978Z,68.15
2019-05-14T00:02:25.937Z,68.15
2019-05-14T00:03:25.890Z,68.05
2019-05-14T00:04:25.842Z,69.00
2019-05-14T00:05:25.799Z,68.81
2019-05-14T00:06:25.753Z,68.71
2019-05-14T00:07:25.708Z,69.29
2019-05-14T00:08:25.663Z,69.29
2019-05-14T00:09:25.615Z,69.48
2019-05-14T00:10:25.573Z,70.33
2019-05-14T00:11:25.524Z,70.05
2019-05-14T00:12:25.477Z,70.68
2019-05-14T00:13:25.431Z,70.20
2019-05-14T00:14:35.656Z,70.58
2019-05-14T00:15:25.345Z,70.68
2019-05-14T00:16:25.293Z,70.77
2019-05-14T00:17:25.250Z,70.87
2019-05-14T00:18:25.202Z,70.97
2019-05-14T00:19:25.157Z,71.44
2019-05-14T00:20:25.111Z,71.72
2019-05-14T00:21:25.069Z,71.91
2019-05-14T00:22:25.019Z,71.63
2019-05-14T00:23:24.973Z,71.63
2019-05-14T00:24:24.926Z,71.72
2019-05-14T00:25:24.884Z,72.30
2019-05-14T00:26:24.835Z,72.01
2019-05-14T00:27:24.789Z,71.63
2019-05-14T00:28:24.752Z,72.49
2019-05-14T00:29:24.703Z,72.67
2019-05-14T00:30:24.652Z,72.77
2019-05-14T00:31:24.607Z,72.58
2019-05-14T00:32:24.560Z,72.58
2019-05-14T00:33:24.514Z,72.77
2019-05-14T00:34:24.470Z,73.34
2019-05-14T00:35:24.422Z,73.91
2019-05-14T00:36:24.377Z,73.91
2019-05-14T00:37:24.332Z,73.72
2019-05-14T00:38:24.284Z,74.10
2019-05-14T00:39:24.240Z,74.01
2019-05-14T00:40:24.195Z,73.82
2019-05-14T00:41:24.151Z,74.39
2019-05-14T00:42:24.101Z,74.48
2019-05-14T00:43:24.058Z,74.01
2019-05-14T00:44:24.008Z,74.48
2019-05-14T00:45:23.963Z,74.48
2019-05-14T00:46:23.918Z,75.24
2019-05-14T00:47:23.871Z,75.05
2019-05-14T00:48:23.825Z,74.39
2019-05-14T00:49:23.780Z,75.34
2019-05-14T00:50:23.733Z,75.24
2019-05-14T00:51:23.688Z,75.62
2019-05-14T00:52:23.641Z,75.62
2019-05-14T00:53:23.596Z,75.62
2019-05-14T00:54:23.551Z,75.53
2019-05-14T00:55:23.503Z,75.34
2019-05-14T00:56:23.456Z,76.29
2019-05-14T00:57:23.413Z,76.01
2019-05-14T00:58:23.366Z,75.91
2019-05-14T00:59:23.319Z,75.87
2019-05-14T01:00:23.283Z,76.16
2019-05-14T01:01:23.226Z,76.20
2019-05-14T01:02:23.182Z,76.35
2019-05-14T01:03:23.135Z,77.01
2019-05-14T01:04:23.095Z,76.92
2019-05-14T03:13:19.984Z,89.86
2019-05-14T03:14:19.591Z,90.14
2019-05-14T03:15:19.850Z,90.14
2019-05-14T03:16:25.903Z,89.76
2019-05-14T03:17:19.838Z,90.52
2019-05-14T03:18:19.567Z,90.52
2019-05-14T03:19:19.662Z,90.61
2019-05-14T03:20:19.674Z,90.90
2019-05-14T03:21:19.657Z,90.71
2019-05-14T03:22:24.710Z,90.99
2019-05-14T03:23:21.814Z,90.90
2019-05-14T03:24:19.447Z,91.38
2019-05-14T03:25:19.274Z,90.90
2019-05-14T03:26:19.626Z,91.09
2019-05-14T03:27:19.376Z,90.99
2019-05-14T03:28:19.613Z,90.90
2019-05-14T03:29:19.344Z,91.19
2019-05-14T03:30:16.316Z,90.99
2019-05-14T03:31:21.772Z,91.94
2019-05-14T03:32:21.725Z,91.85
2019-05-14T03:33:21.382Z,91.75
2019-05-14T03:35:03.835Z,92.42
2019-05-14T03:36:07.447Z,92.32
2019-05-14T03:37:03.430Z,92.28
2019-05-14T03:38:00.425Z,92.32
2019-05-14T03:38:59.403Z,92.94
2019-05-14T03:39:59.421Z,93.18
2019-05-14T03:41:00.144Z,93.13
2019-05-14T03:41:59.113Z,92.99
2019-05-14T03:42:59.829Z,93.37
2019-05-14T03:44:00.077Z,93.13
2019-05-14T03:44:59.695Z,93.08
2019-05-14T03:45:59.385Z,93.04
2019-05-14T03:47:04.457Z,93.27
2019-05-14T03:47:58.867Z,92.66
2019-05-14T03:49:00.104Z,92.61
2019-05-14T03:49:58.834Z,93.13
2019-05-14T03:51:00.135Z,93.41
2019-05-14T03:52:00.360Z,93.23
2019-05-14T03:52:59.390Z,93.41
2019-05-14T03:54:05.814Z,93.51
2019-05-14T03:55:01.319Z,93.60
2019-05-14T03:55:59.648Z,93.41
2019-05-14T03:57:00.320Z,93.60
2019-05-14T03:57:59.416Z,94.37
2019-05-14T03:58:59.914Z,93.99
2019-05-14T03:59:59.719Z,93.99
2019-05-14T04:01:00.345Z,94.27
2019-05-14T04:01:59.603Z,94.18
2019-05-14T04:03:00.237Z,93.89
2019-05-14T04:03:59.271Z,94.08
2019-05-14T04:04:59.858Z,93.99
2019-05-14T04:05:59.438Z,94.27
2019-05-14T04:06:59.716Z,94.18
2019-05-14T04:07:59.366Z,94.37
2019-05-14T04:09:00.290Z,94.46
2019-05-14T04:09:59.536Z,95.03
2019-05-14T04:10:59.058Z,94.84
2019-05-14T04:11:59.417Z,95.03
2019-05-14T04:12:59.821Z,95.03
2019-05-14T04:13:59.858Z,94.93
2019-05-14T04:14:59.574Z,94.93
2019-05-14T04:15:59.995Z,94.93
2019-05-14T04:17:08.081Z,94.84
2019-05-14T04:17:59.542Z,95.03
2019-05-14T04:18:59.347Z,95.12
2019-05-14T04:19:59.690Z,95.79
2019-05-14T04:20:59.318Z,95.89
2019-05-14T04:21:59.621Z,95.51
2019-05-14T04:22:56.248Z,95.51
2019-05-14T04:23:59.172Z,95.98
2019-05-14T04:24:56.153Z,95.89
2019-05-14T04:25:56.102Z,95.98
2019-05-14T04:27:03.430Z,95.79
2019-05-14T04:27:59.577Z,96.55
2019-05-14T04:28:55.978Z,96.55
2019-05-14T04:29:58.794Z,96.36
2019-05-14T04:30:58.765Z,96.36
2019-05-14T04:31:55.822Z,96.64
2019-05-14T04:32:55.777Z,96.74
2019-05-14T04:33:58.975Z,96.64
2019-05-14T04:34:59.447Z,96.74
2019-05-14T04:35:55.637Z,96.74
2019-05-14T04:36:55.588Z,96.74
2019-05-14T04:37:58.689Z,96.64
2019-05-14T04:38:55.579Z,97.50
2019-05-14T04:39:55.446Z,97.31
2019-05-14T04:40:55.397Z,97.02
2019-05-14T04:41:55.354Z,97.60
2019-05-14T04:42:55.306Z,97.41
2019-05-14T04:43:55.257Z,97.50
2019-05-14T04:44:55.213Z,97.31
2019-05-14T04:45:55.166Z,97.60
2019-05-14T04:46:55.125Z,97.50
2019-05-14T04:47:55.076Z,98.35
2019-05-14T04:48:55.030Z,98.54
2019-05-14T04:49:54.977Z,98.45
2019-05-14T04:50:54.930Z,98.16
2019-05-14T04:51:54.883Z,98.54
2019-05-14T04:52:54.846Z,98.45
2019-05-14T04:53:54.788Z,98.26
2019-05-14T04:54:54.739Z,98.21
2019-05-14T04:55:54.698Z,98.59
2019-05-14T04:56:54.659Z,98.26
2019-05-14T04:57:54.602Z,98.40
2019-05-14T04:58:54.562Z,98.69
2019-05-14T04:59:54.524Z,99.07
2019-05-14T05:00:54.463Z,98.97
2019-05-14T05:01:54.415Z,99.07
2019-05-14T05:02:54.372Z,98.97
2019-05-14T05:03:54.318Z,99.07
2019-05-14T05:04:54.272Z,99.07
2019-05-14T05:05:54.232Z,98.97
2019-05-14T05:06:54.183Z,98.79
2019-05-14T05:07:54.140Z,98.97
2019-05-14T05:08:54.097Z,99.07
2019-05-14T05:09:54.039Z,99.07
2019-05-14T05:10:53.993Z,99.07
2019-05-14T05:11:53.947Z,99.16
2019-05-14T05:12:53.902Z,99.26
2019-05-14T05:13:53.853Z,98.97
2019-05-14T05:14:53.801Z,98.12
2019-05-14T05:15:53.758Z,98.59
2019-05-14T05:16:53.713Z,98.59
2019-05-14T05:17:53.671Z,98.31
2019-05-14T05:18:53.617Z,98.31
2019-05-14T05:19:53.570Z,98.40
2019-05-14T05:20:53.523Z,98.40
2019-05-14T05:21:53.479Z,98.40
2019-05-14T05:22:53.432Z,98.69
2019-05-14T05:23:53.385Z,98.02
2019-05-14T05:24:53.339Z,98.12
2019-05-14T05:25:53.297Z,98.88
2019-05-14T05:26:53.243Z,99.07
2019-05-14T05:27:56.366Z,99.07
2019-05-14T05:29:05.606Z,99.07
2019-05-14T05:29:53.113Z,99.16
2019-05-14T05:30:53.056Z,99.40
2019-05-14T05:32:35.381Z,99.26
2019-05-14T05:33:35.331Z,99.30
2019-05-14T05:34:35.289Z,99.21
2019-05-14T05:35:35.238Z,99.02
2019-05-14T05:36:35.196Z,99.69
2019-05-14T05:37:35.146Z,99.50
2019-05-14T05:38:35.101Z,99.69
2019-05-14T05:39:35.051Z,99.78
2019-05-14T05:40:35.004Z,99.30
2019-05-14T05:41:34.961Z,98.64
2019-05-14T05:42:34.915Z,98.55
2019-05-14T05:43:34.868Z,98.36
2019-05-14T05:44:34.817Z,98.17
2019-05-14T05:45:34.772Z,98.74
2019-05-14T05:46:34.727Z,97.97
2019-05-14T05:47:34.681Z,97.55
2019-05-14T05:48:34.641Z,97.60
2019-05-14T05:49:34.585Z,96.89
2019-05-14T05:50:34.539Z,96.79
2019-05-14T05:51:34.496Z,96.50
2019-05-14T05:52:34.446Z,96.69
2019-05-14T05:53:34.399Z,96.22
2019-05-14T05:54:34.358Z,96.03
2019-05-14T05:55:34.310Z,95.84
2019-05-14T05:56:34.265Z,95.36
2019-05-14T05:57:34.215Z,94.42
2019-05-14T05:58:34.171Z,93.55
2019-05-14T05:59:34.128Z,93.65
2019-05-14T06:00:34.077Z,93.75
2019-05-14T06:01:42.835Z,93.27
2019-05-14T06:02:33.989Z,93.18
2019-05-14T06:03:33.940Z,92.03
2019-05-14T06:04:33.893Z,92.18
2019-05-14T06:05:33.843Z,92.41
2019-05-14T06:06:33.799Z,91.89
2019-05-14T06:07:33.752Z,91.99
2019-05-14T06:08:33.706Z,91.32
2019-05-14T06:09:33.667Z,91.32
2019-05-14T06:10:33.619Z,91.99
2019-05-14T06:11:33.566Z,91.80
2019-05-14T06:12:33.518Z,91.22
2019-05-14T06:13:33.478Z,90.84
2019-05-14T06:14:33.424Z,90.37
2019-05-14T06:15:44.628Z,89.51
2019-05-14T06:16:33.335Z,88.94
2019-05-14T06:17:33.286Z,88.75
2019-05-14T06:18:34.531Z,88.09
2019-05-14T06:20:33.150Z,87.32
2019-05-14T06:21:33.104Z,86.94
2019-05-14T06:22:33.059Z,87.04
2019-05-14T06:23:33.017Z,87.42
2019-05-14T06:24:32.968Z,87.23
2019-05-14T06:25:32.919Z,86.90
2019-05-14T06:26:32.871Z,86.38
2019-05-14T06:27:32.832Z,86.61
2019-05-14T06:28:33.719Z,86.42
2019-05-14T06:29:32.736Z,87.46
2019-05-14T06:30:32.688Z,87.27
2019-05-14T06:31:32.643Z,86.99
2019-05-14T06:32:32.598Z,87.18
2019-05-14T06:33:32.561Z,86.90
2019-05-14T06:34:32.505Z,86.51
2019-05-14T06:35:32.460Z,86.42
2019-05-14T06:36:32.411Z,87.08
2019-05-14T06:37:32.374Z,86.61
2019-05-14T06:38:32.320Z,85.56
2019-05-14T06:39:32.275Z,85.94
2019-05-14T06:40:32.233Z,86.42
2019-05-14T06:41:32.182Z,86.42
2019-05-14T06:42:32.142Z,86.04
2019-05-14T06:43:32.121Z,84.65
2019-05-14T06:44:32.043Z,84.46
2019-05-14T06:45:32.008Z,84.56
2019-05-14T06:46:31.954Z,84.08
2019-05-14T06:47:31.908Z,83.98
2019-05-14T06:48:34.676Z,83.61
2019-05-14T06:49:31.815Z,84.46
2019-05-14T06:50:31.769Z,83.80
2019-05-14T06:51:31.723Z,83.13
2019-05-14T06:52:31.682Z,82.84
2019-05-14T06:53:31.642Z,82.37
2019-05-14T06:54:31.592Z,81.60
2019-05-14T06:55:31.542Z,81.79
2019-05-14T06:56:31.497Z,80.88
2019-05-14T06:57:31.450Z,81.51
2019-05-14T06:58:31.401Z,81.23
2019-05-14T06:59:31.360Z,81.65
2019-05-14T07:00:31.311Z,81.55
2019-05-14T07:01:31.265Z,81.07
2019-05-14T07:02:31.221Z,80.60
2019-05-14T07:03:31.173Z,81.07
2019-05-14T07:04:31.132Z,80.69
2019-05-14T07:05:31.084Z,79.83
2019-05-14T07:06:31.038Z,80.92
2019-05-14T07:07:31.121Z,81.30
2019-05-14T07:08:30.955Z,79.88
2019-05-14T07:09:30.921Z,79.11
2019-05-14T07:10:30.864Z,79.11
2019-05-14T07:11:30.809Z,79.11
2019-05-14T07:12:30.765Z,78.54
2019-05-14T07:13:30.740Z,78.35
2019-05-14T07:14:30.675Z,79.02
2019-05-14T07:15:30.632Z,79.21
2019-05-14T07:16:30.586Z,78.44
2019-05-14T07:17:30.542Z,78.73
2019-05-14T07:18:45.482Z,77.78
2019-05-14T07:19:30.449Z,78.25
2019-05-14T07:20:30.404Z,78.16
2019-05-14T07:21:30.362Z,78.20
2019-05-14T07:22:30.316Z,77.62
2019-05-14T07:23:30.270Z,77.15
2019-05-14T07:24:30.227Z,76.77
2019-05-14T07:25:30.180Z,77.25
2019-05-14T07:26:30.135Z,76.57
2019-05-14T07:27:30.088Z,76.86
2019-05-14T07:28:30.057Z,76.77
2019-05-14T07:29:30.001Z,77.06
2019-05-14T07:30:29.954Z,76.86
2019-05-14T07:31:29.908Z,77.15
2019-05-14T07:32:29.862Z,76.77
2019-05-14T07:33:29.821Z,76.10
2019-05-14T07:34:29.770Z,75.95
2019-05-14T07:35:29.728Z,75.15
2019-05-14T07:36:29.720Z,75.18
2019-05-14T07:37:29.638Z,74.90
2019-05-14T07:38:29.595Z,75.18
2019-05-14T07:39:29.549Z,74.80
2019-05-14T07:40:29.501Z,74.80
2019-05-14T07:41:29.462Z,74.71
2019-05-14T07:43:29.371Z,74.61
2019-05-14T07:44:29.804Z,74.80
2019-05-14T07:45:29.279Z,74.42
2019-05-14T07:46:29.236Z,74.71
2019-05-14T07:47:29.300Z,74.61
2019-05-14T07:48:29.146Z,74.80
2019-05-14T07:49:29.282Z,74.80
2019-05-14T07:50:29.161Z,74.90
2019-05-14T07:51:29.013Z,74.61
2019-05-14T07:52:28.966Z,74.61
2019-05-14T07:53:38.658Z,74.04
2019-05-14T07:54:28.879Z,73.37
2019-05-14T07:55:28.983Z,74.46
2019-05-14T07:56:29.444Z,73.98
2019-05-14T07:57:28.744Z,74.55
2019-05-14T07:58:28.702Z,73.50
2019-05-14T07:59:28.923Z,72.93
2019-05-14T08:00:28.684Z,73.32
2019-05-14T08:01:28.571Z,73.03
2019-05-14T08:02:29.099Z,72.93
2019-05-14T08:03:28.719Z,73.03
2019-05-14T08:04:29.110Z,73.35
2019-05-14T08:05:28.856Z,71.88
2019-05-14T08:06:28.345Z,72.49
2019-05-14T08:07:28.339Z,72.39
2019-05-14T08:08:29.275Z,72.78
2019-05-14T08:09:28.483Z,72.01
2019-05-14T08:10:28.965Z,70.96
2019-05-14T08:11:28.188Z,71.63
2019-05-14T08:12:28.499Z,70.67
2019-05-14T08:13:28.460Z,71.06
2019-05-14T08:14:29.490Z,70.77
2019-05-14T08:15:28.074Z,70.77
2019-05-14T08:16:28.863Z,70.77
2019-05-14T08:17:28.167Z,70.58
2019-05-14T08:18:29.034Z,70.67
2019-05-14T08:19:30.392Z,71.06
2019-05-14T08:20:28.652Z,71.09
2019-05-14T08:21:28.546Z,70.61
2019-05-14T08:22:29.141Z,71.28
2019-05-14T08:23:28.249Z,71.19
2019-05-14T08:24:30.021Z,70.52
2019-05-14T08:25:28.320Z,69.47
2019-05-14T08:26:29.299Z,68.80
2019-05-14T08:27:30.944Z,69.09
2019-05-14T08:28:29.023Z,68.99
2019-05-14T08:29:28.703Z,68.04
2019-05-14T08:30:28.372Z,68.04
2019-05-14T08:31:29.256Z,68.70
2019-05-14T08:32:28.424Z,69.76
2019-05-14T08:33:29.065Z,69.12
2019-05-14T08:34:30.363Z,68.07
2019-05-14T08:35:29.053Z,67.78
2019-05-14T08:36:28.648Z,67.88
2019-05-14T08:37:27.955Z,67.11
2019-05-14T08:38:28.470Z,67.30
2019-05-14T08:39:28.604Z,68.55
2019-05-14T08:40:28.738Z,67.88
2019-05-14T08:41:28.811Z,67.88
2019-05-14T08:42:28.936Z,67.63
2019-05-14T08:43:29.024Z,68.39
2019-05-14T08:44:29.183Z,67.82
2019-05-14T08:45:28.324Z,66.47
2019-05-14T08:46:28.350Z,65.61
2019-05-14T08:47:28.988Z,64.95
2019-05-14T08:48:29.016Z,64.75
2019-05-14T08:49:41.167Z,64.75
2019-05-14T08:50:28.129Z,64.79
2019-05-14T08:51:29.163Z,64.88
2019-05-14T08:52:28.829Z,63.83
2019-05-14T08:53:28.576Z,64.02
2019-05-14T08:54:28.387Z,63.93
2019-05-14T08:55:26.195Z,63.16
2019-05-14T08:56:28.207Z,63.16
2019-05-14T08:57:26.759Z,63.26
2019-05-14T08:58:26.341Z,63.64
2019-05-14T08:59:28.491Z,63.06
2019-05-14T09:00:25.979Z,63.45
2019-05-14T09:01:25.935Z,63.29
2019-05-14T09:02:25.893Z,62.71
2019-05-14T09:03:28.547Z,62.62
2019-05-14T09:04:29.759Z,61.47
2019-05-14T09:05:25.762Z,62.04
2019-05-14T09:06:25.717Z,61.76
2019-05-14T09:07:25.677Z,61.76
2019-05-14T09:08:28.269Z,61.50
2019-05-14T09:09:25.589Z,60.64
2019-05-14T09:10:28.395Z,60.16
2019-05-14T09:11:26.322Z,59.30
2019-05-14T09:12:25.457Z,59.87
2019-05-14T09:13:25.415Z,58.62
2019-05-14T09:14:25.372Z,56.52
2019-05-14T09:16:41.687Z,54.24
2019-05-14T09:17:25.246Z,55.30
2019-05-14T09:19:25.168Z,57.89
2019-05-14T09:20:25.118Z,58.08
2019-05-14T09:21:25.077Z,58.46
2019-05-14T09:22:25.034Z,58.17
2019-05-14T09:23:24.989Z,57.03
2019-05-14T09:24:24.948Z,55.49
2019-05-14T09:25:24.905Z,54.44
2019-05-14T09:26:24.864Z,54.53
2019-05-14T09:27:24.821Z,53.38
2019-05-14T09:28:24.776Z,53.09
2019-05-14T09:29:26.043Z,53.48
2019-05-14T09:30:24.715Z,54.15
2019-05-14T09:31:24.671Z,55.01
2019-05-14T09:32:24.604Z,53.38
2019-05-14T09:33:24.717Z,53.48
2019-05-14T09:34:24.520Z,53.38
2019-05-14T09:35:24.479Z,51.95
2019-05-14T09:36:24.593Z,52.16
2019-05-14T09:37:24.393Z,52.26
2019-05-14T09:38:24.350Z,51.59
2019-05-14T09:39:24.322Z,51.78
2019-05-14T09:40:24.266Z,54.46
2019-05-14T09:41:27.518Z,51.49
2019-05-14T09:42:24.194Z,50.37
2019-05-14T09:43:24.138Z,50.65
2019-05-14T09:44:24.095Z,50.84
2019-05-14T09:45:24.056Z,50.75
2019-05-14T09:46:24.016Z,50.08
2019-05-14T09:47:23.970Z,49.02
2019-05-14T09:48:23.929Z,48.85
2019-05-14T09:49:23.887Z,47.49
2019-05-14T09:50:23.844Z,49.05
2019-05-14T09:51:23.800Z,47.51
2019-05-14T09:52:23.756Z,48.16
2019-05-14T09:53:23.718Z,48.66
2019-05-14T09:54:23.672Z,47.51
2019-05-14T09:55:23.631Z,47.51
2019-05-14T09:56:23.589Z,47.51
2019-05-14T09:57:23.547Z,47.61
2019-05-14T09:58:23.504Z,47.32
2019-05-14T09:59:23.460Z,47.80
2019-05-14T10:00:23.429Z,47.61
2019-05-14T10:01:23.381Z,46.65
2019-05-14T10:02:23.336Z,46.07
2019-05-14T10:03:23.298Z,45.98
2019-05-14T10:04:23.250Z,47.51
2019-05-14T10:05:23.206Z,47.61
2019-05-14T10:06:23.167Z,46.94
2019-05-14T10:07:23.126Z,46.84
2019-05-14T10:08:23.082Z,47.13
2019-05-14T10:09:23.042Z,45.88
2019-05-14T10:10:23.001Z,46.07
2019-05-14T10:11:22.957Z,45.98
2019-05-14T10:12:22.918Z,45.01
2019-05-14T10:13:22.878Z,45.01
2019-05-14T10:14:22.836Z,45.50
2019-05-14T10:15:22.793Z,45.78
2019-05-14T10:16:22.746Z,46.26
2019-05-14T10:17:22.704Z,46.05
2019-05-14T10:18:22.666Z,46.14
2019-05-14T10:19:22.620Z,45.57
2019-05-14T10:20:36.364Z,46.14
2019-05-14T10:21:22.536Z,47.08
2019-05-14T10:22:22.494Z,48.13
2019-05-14T10:23:22.456Z,48.33
2019-05-14T10:24:22.412Z,47.94
2019-05-14T10:25:22.365Z,47.85
2019-05-14T10:26:22.330Z,48.64
2019-05-14T10:27:22.287Z,47.97
2019-05-14T10:28:22.242Z,48.07
2019-05-14T10:29:22.199Z,46.34
2019-05-14T10:30:22.158Z,45.95
2019-05-14T10:31:22.115Z,44.80
2019-05-14T10:32:22.073Z,44.44
2019-05-14T10:33:22.029Z,44.82
2019-05-14T10:34:21.987Z,44.24
2019-05-14T10:35:21.946Z,44.82
2019-05-14T10:36:21.935Z,45.50
2019-05-14T10:37:21.878Z,44.27
2019-05-14T10:38:21.821Z,44.27
2019-05-14T10:39:21.774Z,44.56
2019-05-14T10:40:21.733Z,45.71
2019-05-14T10:41:21.700Z,45.32
2019-05-14T10:42:21.649Z,46.41
2019-05-14T10:43:21.610Z,45.06
2019-05-14T10:44:21.570Z,42.85
2019-05-14T10:45:21.525Z,43.07
2019-05-14T10:46:21.485Z,42.39
2019-05-14T10:47:21.446Z,42.10
2019-05-14T10:48:21.408Z,43.16
2019-05-14T10:49:23.725Z,42.39
2019-05-14T10:50:21.331Z,41.72
2019-05-14T10:51:21.278Z,43.08
2019-05-14T10:52:21.237Z,43.66
2019-05-14T10:53:21.195Z,43.66
2019-05-14T10:54:25.216Z,42.60
2019-05-14T10:55:21.109Z,42.41
2019-05-14T10:56:24.699Z,42.32
2019-05-14T10:57:21.027Z,42.03
2019-05-14T10:58:20.985Z,41.53
2019-05-14T10:59:20.949Z,41.43
2019-05-14T11:00:20.904Z,42.39
2019-05-14T11:01:22.727Z,42.56
2019-05-14T11:02:20.825Z,43.14
2019-05-14T11:03:20.785Z,42.94
2019-05-14T11:04:20.738Z,43.04
2019-05-14T11:05:20.698Z,42.08
2019-05-14T11:06:20.655Z,42.47
2019-05-14T11:07:20.638Z,42.94
2019-05-14T11:08:20.573Z,44.10
2019-05-14T11:09:20.527Z,43.91
2019-05-14T11:10:20.485Z,43.71
2019-05-14T11:11:20.447Z,42.97
2019-05-14T11:12:20.403Z,42.10
2019-05-14T11:13:20.365Z,41.53
2019-05-14T11:14:20.325Z,41.72
2019-05-14T11:15:20.285Z,41.45
2019-05-14T11:16:20.235Z,42.30
2019-05-14T11:17:20.195Z,41.93
2019-05-14T11:18:20.185Z,42.32
2019-05-14T11:19:20.115Z,41.55
2019-05-14T11:20:20.069Z,41.26
2019-05-14T11:21:26.407Z,40.39
2019-05-14T11:22:19.987Z,41.26
2019-05-14T11:23:19.949Z,41.26
2019-05-14T11:24:19.907Z,41.66
2019-05-14T11:25:19.868Z,41.86
2019-05-14T11:26:19.834Z,39.45
2019-05-14T11:27:19.786Z,39.64
2019-05-14T11:28:19.743Z,39.47
2019-05-14T11:29:19.702Z,40.05
2019-05-14T11:30:19.661Z,40.05
2019-05-14T11:31:19.625Z,39.87
2019-05-14T11:32:19.577Z,38.72
2019-05-14T11:33:19.538Z,37.66
2019-05-14T11:34:19.544Z,36.79
2019-05-14T11:35:19.456Z,36.13
2019-05-14T11:36:19.436Z,36.73
2019-05-14T11:37:19.373Z,37.41
2019-05-14T11:38:32.171Z,36.44
2019-05-14T11:39:19.287Z,35.59
2019-05-14T11:40:19.243Z,35.03
2019-05-14T11:41:19.216Z,34.64
2019-05-14T11:42:19.823Z,34.86
2019-05-14T11:43:19.122Z,34.79
2019-05-14T11:44:19.079Z,33.84
2019-05-14T11:45:19.048Z,33.26
2019-05-14T11:46:33.769Z,31.63
2019-05-14T11:47:18.954Z,31.46
2019-05-14T11:48:19.441Z,30.11
2019-05-14T11:49:19.513Z,30.13
2019-05-14T11:50:19.433Z,29.66
2019-05-14T11:51:23.758Z,30.16
2019-05-14T11:52:18.750Z,30.27
2019-05-14T11:53:20.260Z,29.51
2019-05-14T11:54:22.761Z,28.05
2019-05-14T11:55:18.932Z,28.05
2019-05-14T11:56:19.467Z,27.18
2019-05-14T11:57:19.294Z,26.89
2019-05-14T11:58:20.602Z,27.48
2019-05-14T11:59:19.002Z,26.51
2019-05-14T12:00:19.488Z,25.73
2019-05-14T12:01:19.041Z,25.95
2019-05-14T12:02:19.035Z,25.86
2019-05-14T12:03:19.555Z,25.96
2019-05-14T12:04:18.767Z,26.22
2019-05-14T12:05:18.962Z,25.95
2019-05-14T12:06:18.738Z,25.93
2019-05-14T12:07:18.684Z,28.63
2019-05-14T12:08:18.655Z,28.86
2019-05-14T12:09:18.920Z,27.51
2019-05-14T12:10:18.743Z,25.78
2019-05-14T12:11:19.378Z,25.20
2019-05-14T12:12:19.010Z,24.61
2019-05-14T12:13:19.386Z,25.16
2019-05-14T12:14:19.091Z,25.90
2019-05-14T12:15:18.722Z,26.85
2019-05-14T12:16:17.779Z,27.26
2019-05-14T12:17:17.734Z,26.81
2019-05-14T12:19:18.813Z,26.50
2019-05-14T12:20:17.600Z,26.71
2019-05-14T12:21:17.563Z,25.84
2019-05-14T12:22:19.101Z,26.70
2019-05-14T12:23:19.168Z,27.19
2019-05-14T12:24:18.455Z,26.93
2019-05-14T12:25:18.801Z,26.12
2019-05-14T12:27:19.212Z,27.18
2019-05-14T12:28:19.069Z,27.46
2019-05-14T12:29:17.239Z,27.47
2019-05-14T12:30:19.554Z,26.51
2019-05-14T12:31:17.165Z,25.84
2019-05-14T12:32:18.835Z,25.37
2019-05-14T12:33:19.710Z,24.80
2019-05-14T12:34:18.662Z,24.10
2019-05-14T12:35:19.597Z,25.43
2019-05-14T12:36:19.467Z,25.36
2019-05-14T12:37:18.606Z,26.12
2019-05-14T12:38:19.507Z,25.92
2019-05-14T12:39:18.803Z,26.87
2019-05-14T12:40:19.199Z,26.42
2019-05-14T12:41:19.409Z,25.85
2019-05-14T12:42:19.354Z,25.29
2019-05-14T12:43:18.821Z,24.72
2019-05-14T12:44:19.375Z,23.67
2019-05-14T12:45:19.141Z,22.90
2019-05-14T12:46:16.569Z,23.02
2019-05-14T12:47:18.873Z,21.86
2019-05-14T12:48:18.779Z,21.45
2019-05-14T12:49:18.737Z,23.17
2019-05-14T12:50:16.408Z,24.04
2019-05-14T12:51:18.624Z,23.00
2019-05-14T12:52:25.157Z,22.61
2019-05-14T12:53:16.296Z,21.85
2019-05-14T12:54:16.265Z,21.48
2019-05-14T12:55:19.023Z,21.47
2019-05-14T12:56:18.595Z,21.55
2019-05-14T12:57:18.775Z,20.69
2019-05-14T12:58:16.108Z,21.00
2019-05-14T12:59:16.070Z,20.72
2019-05-14T13:00:16.031Z,19.47
2019-05-14T13:01:15.998Z,18.89
2019-05-14T13:02:18.540Z,19.65
2019-05-14T13:03:15.925Z,19.91
2019-05-14T13:04:15.897Z,20.47
2019-05-14T13:05:18.176Z,21.22
2019-05-14T13:06:18.828Z,21.44
2019-05-14T13:08:18.279Z,21.92
2019-05-14T13:09:19.114Z,21.34
2019-05-14T13:10:15.662Z,22.13
2019-05-14T13:11:15.629Z,22.83
2019-05-14T13:12:15.589Z,22.55
2019-05-14T13:13:15.558Z,21.68
2019-05-14T13:14:15.518Z,20.79
2019-05-14T13:18:05.005Z,22.67
2019-05-14T13:19:04.967Z,22.94
2019-05-14T13:20:04.935Z,23.63
2019-05-14T13:21:04.895Z,23.72
2019-05-14T13:22:13.064Z,24.24
2019-05-14T13:23:04.815Z,23.74
2019-05-14T13:24:04.784Z,23.43
2019-05-14T13:25:04.739Z,22.88
2019-05-14T13:26:04.704Z,23.08
2019-05-14T13:27:04.679Z,22.28
2019-05-14T13:28:04.640Z,22.31
2019-05-14T13:29:08.177Z,21.73
2019-05-14T13:30:04.555Z,21.44
2019-05-14T13:31:04.523Z,22.09
2019-05-14T13:32:04.889Z,22.64
2019-05-14T13:33:04.450Z,23.49
2019-05-14T13:34:04.420Z,24.45
2019-05-14T13:35:04.373Z,25.52
2019-05-14T13:36:04.334Z,25.46
2019-05-14T13:37:04.319Z,23.63
2019-05-14T13:38:04.286Z,22.88
2019-05-14T13:39:04.223Z,22.21
2019-05-14T13:40:04.199Z,20.86
2019-05-14T13:41:04.148Z,20.39
2019-05-14T13:42:48.983Z,19.32
2019-05-14T13:43:50.092Z,19.04
2019-05-14T13:44:46.422Z,18.76
2019-05-14T13:45:49.183Z,18.77
2019-05-14T13:46:48.646Z,18.77
2019-05-14T13:47:48.775Z,18.98
2019-05-14T13:48:49.571Z,18.11
2019-05-14T13:49:48.774Z,18.01
2019-05-14T13:50:48.970Z,18.09
2019-05-14T13:51:48.835Z,19.35
2019-05-14T13:52:59.819Z,18.85
2019-05-14T13:53:46.097Z,19.41
2019-05-14T13:54:46.059Z,20.57
2019-05-14T13:55:50.553Z,20.48
2019-05-14T13:56:48.278Z,20.80
2019-05-14T13:57:48.498Z,19.34
2019-05-14T13:58:48.646Z,18.95
2019-05-14T13:59:45.882Z,19.73
2019-05-14T14:00:45.845Z,19.15
2019-05-14T14:01:48.483Z,18.75
2019-05-14T14:02:45.780Z,19.42
2019-05-14T14:03:58.432Z,19.13
2019-05-14T14:04:48.091Z,19.13
2019-05-14T14:05:45.668Z,19.90
2019-05-14T14:06:45.661Z,19.59
2019-05-14T14:07:48.369Z,20.83
2019-05-14T14:08:45.562Z,21.79
2019-05-14T14:09:45.533Z,22.74
2019-05-14T14:10:52.259Z,23.02
2019-05-14T14:11:45.455Z,23.97
2019-05-14T14:12:45.457Z,23.96
2019-05-14T14:13:45.395Z,24.17
2019-05-14T14:14:45.350Z,23.80
2019-05-14T14:15:45.310Z,22.45
2019-05-14T14:16:45.274Z,22.19
2019-05-14T14:17:45.241Z,21.80
2019-05-14T14:18:45.205Z,21.32
2019-05-14T14:19:45.217Z,21.32
2019-05-14T14:20:45.133Z,22.50
2019-05-14T14:21:45.096Z,21.12
2019-05-14T14:22:45.059Z,19.78
2019-05-14T14:23:45.028Z,20.07
2019-05-14T14:24:44.985Z,20.47
2019-05-14T14:25:44.970Z,20.45
2019-05-14T14:26:44.912Z,20.64
2019-05-14T14:27:44.878Z,20.64
2019-05-14T14:28:44.841Z,21.25
2019-05-14T14:29:44.807Z,20.78
2019-05-14T14:30:44.769Z,19.23
2019-05-14T14:31:44.736Z,19.63
2019-05-14T14:32:44.705Z,18.65
2019-05-14T14:33:44.663Z,18.85
2019-05-14T14:34:44.630Z,18.95
2019-05-14T14:35:44.591Z,18.74
2019-05-14T14:36:44.561Z,18.25
2019-05-14T14:37:44.530Z,17.68
2019-05-14T14:38:44.493Z,18.07
2019-05-14T14:39:45.059Z,17.97
2019-05-14T14:40:44.423Z,18.27
2019-05-14T14:41:44.397Z,18.10
2019-05-14T14:42:44.351Z,17.51
2019-05-14T14:43:44.671Z,17.02
2019-05-14T14:44:44.285Z,17.52
2019-05-14T14:45:46.232Z,16.74
2019-05-14T14:46:44.215Z,17.04
2019-05-14T14:47:44.201Z,17.24
2019-05-14T14:48:44.147Z,16.45
2019-05-14T14:49:44.443Z,16.66
2019-05-14T14:50:44.089Z,16.36
2019-05-14T14:51:45.310Z,16.95
2019-05-14T14:52:44.024Z,17.14
2019-05-14T14:53:58.376Z,15.57
2019-05-14T14:54:43.954Z,15.57
2019-05-14T14:55:43.927Z,15.57
2019-05-14T14:56:43.892Z,15.86
2019-05-14T14:57:46.034Z,15.36
2019-05-14T14:58:43.827Z,16.34
2019-05-14T14:59:43.798Z,16.93
2019-05-14T15:00:43.766Z,16.33
2019-05-14T15:01:43.746Z,17.02
2019-05-14T15:02:43.700Z,16.93
2019-05-14T15:03:43.706Z,16.83
2019-05-14T15:04:43.644Z,16.44
2019-05-14T15:05:43.621Z,16.85
2019-05-14T15:06:43.578Z,16.35
2019-05-14T15:07:43.556Z,16.35
2019-05-14T15:08:43.518Z,17.03
2019-05-14T15:09:43.504Z,17.03
2019-05-14T15:10:43.455Z,16.34
2019-05-14T15:11:43.429Z,17.20